Time;durP1;ratioP1;P1;durP2;ratioP2;P2;SDS_P1;SDS_P2;PMS_P1;PMS_P2;Temp;Humidity;BMP_temperature;BMP_pressure;BME280_temperature;BME280_humidity;BME280_pressure;Samples;Min_cycle;Max_cycle;Signal;HPM_P1;HPM_P2
2023/07/17 00:00:36;;;;;;;10.60;4.90;;;;;;;22.28;59.19;100059.03;6067956;23;20406;-83
2023/07/17 00:03:13;;;;;;;14.57;5.35;;;;;;;22.25;59.14;100064.84;6048061;23;20116;-83
2023/07/17 00:05:40;;;;;;;11.23;5.45;;;;;;;22.23;58.96;100066.09;6069070;23;20030;-84
2023/07/17 00:08:07;;;;;;;12.52;5.07;;;;;;;22.21;58.54;100066.31;6067339;23;20417;-84
2023/07/17 00:10:34;;;;;;;11.77;5.13;;;;;;;22.19;58.55;100067.53;6068699;23;20457;-84
2023/07/17 00:13:01;;;;;;;13.13;5.60;;;;;;;22.17;58.35;100078.56;6044446;23;20022;-84
2023/07/17 00:15:28;;;;;;;11.93;5.15;;;;;;;22.14;58.11;100075.44;6068711;23;20018;-84
2023/07/17 00:17:54;;;;;;;14.23;5.07;;;;;;;22.12;58.09;100064.81;6021311;23;20021;-84
2023/07/17 00:20:23;;;;;;;11.95;4.85;;;;;;;22.10;58.27;100072.28;6117609;23;20018;-84
2023/07/17 00:22:50;;;;;;;11.52;5.68;;;;;;;22.09;58.01;100076.88;6118072;23;20053;-84
2023/07/17 00:25:17;;;;;;;11.25;5.05;;;;;;;22.04;58.46;100078.53;6045755;23;20323;-84
2023/07/17 00:27:44;;;;;;;9.38;5.07;;;;;;;22.00;58.59;100075.38;6044297;23;20446;-84
2023/07/17 00:30:11;;;;;;;16.70;5.78;;;;;;;22.02;58.77;100072.50;6068347;23;20030;-84
2023/07/17 00:32:39;;;;;;;12.38;5.97;;;;;;;22.03;58.84;100084.97;6069449;23;20076;-84
2023/07/17 00:35:07;;;;;;;11.40;4.93;;;;;;;21.99;58.71;100081.03;6045008;23;20057;-83
2023/07/17 00:37:34;;;;;;;9.35;5.15;;;;;;;21.98;58.82;100088.31;6067811;23;20018;-84
2023/07/17 00:40:01;;;;;;;8.10;5.28;;;;;;;21.96;58.70;100084.13;6045009;23;20021;-84
2023/07/17 00:42:28;;;;;;;13.98;5.55;;;;;;;22.00;58.76;100085.38;6045267;23;20026;-84
2023/07/17 00:44:55;;;;;;;11.40;5.05;;;;;;;21.97;58.45;100091.19;6068306;23;20034;-84
2023/07/17 00:47:22;;;;;;;11.52;5.43;;;;;;;21.96;58.56;100089.53;6068700;23;20022;-83
2023/07/17 00:49:49;;;;;;;14.88;6.53;;;;;;;21.95;58.26;100090.56;6044341;23;20080;-84
2023/07/17 00:52:17;;;;;;;13.18;5.15;;;;;;;21.93;58.38;100093.50;6044622;23;20767;-84
2023/07/17 00:54:44;;;;;;;15.30;5.05;;;;;;;21.93;59.33;100087.22;6068428;23;20517;-84
2023/07/17 00:57:12;;;;;;;9.68;5.22;;;;;;;21.92;59.62;100085.56;6068285;23;20061;-83
2023/07/17 00:59:40;;;;;;;11.55;5.68;;;;;;;21.87;59.47;100092.41;6044128;23;20444;-83
2023/07/17 01:02:08;;;;;;;13.20;4.88;;;;;;;21.84;59.50;100092.81;6043866;23;20414;-84
2023/07/17 01:04:39;;;;;;;10.18;4.50;;;;;;;21.83;59.83;100080.34;6044912;23;20076;-83
2023/07/17 01:07:05;;;;;;;15.25;5.85;;;;;;;21.83;59.91;100084.91;6091783;23;20354;-83
2023/07/17 01:09:32;;;;;;;12.25;5.55;;;;;;;21.82;59.93;100084.06;6092452;23;20026;-84
2023/07/17 01:11:59;;;;;;;12.10;5.80;;;;;;;21.80;59.86;100086.13;6091862;23;20494;-84
2023/07/17 01:14:26;;;;;;;14.77;5.57;;;;;;;21.77;59.93;100083.84;6067369;23;20026;-83
2023/07/17 01:16:53;;;;;;;9.30;4.78;;;;;;;21.78;59.52;100090.09;6043829;23;20451;-84
2023/07/17 01:19:19;;;;;;;13.43;5.70;;;;;;;21.76;59.62;100098.41;6068549;23;20022;-84
2023/07/17 01:21:57;;;;;;;12.00;5.35;;;;;;;21.67;60.11;100086.94;6068871;23;20109;-83
2023/07/17 01:24:24;;;;;;;11.52;5.32;;;;;;;21.72;59.77;100091.72;6067438;23;20029;-84
2023/07/17 01:26:51;;;;;;;11.68;5.20;;;;;;;21.71;59.98;100090.09;6091428;23;20350;-84
2023/07/17 01:29:18;;;;;;;10.15;5.30;;;;;;;21.72;59.39;100088.19;6068151;23;20133;-84
2023/07/17 01:31:45;;;;;;;11.80;5.70;;;;;;;21.70;59.32;100093.78;6043061;23;20307;-83
2023/07/17 01:34:13;;;;;;;13.20;5.65;;;;;;;21.70;59.44;100095.69;6066893;23;20050;-85
2023/07/17 01:36:39;;;;;;;15.90;6.47;;;;;;;21.68;59.40;100093.19;6020493;23;20033;-84
2023/07/17 01:39:07;;;;;;;11.10;5.57;;;;;;;21.66;59.25;100089.84;6068157;23;20097;-83
2023/07/17 01:41:33;;;;;;;13.40;5.93;;;;;;;21.65;59.38;100094.44;6068051;23;22333;-84
2023/07/17 01:44:00;;;;;;;14.35;6.05;;;;;;;21.62;59.07;100085.88;6066936;23;20025;-84
2023/07/17 01:46:27;;;;;;;15.38;5.78;;;;;;;21.63;59.44;100091.09;6043501;23;20088;-83
2023/07/17 01:48:55;;;;;;;14.43;5.93;;;;;;;21.64;59.33;100098.16;6068625;23;20022;-83
2023/07/17 01:51:22;;;;;;;12.32;6.25;;;;;;;21.59;59.48;100089.81;6067256;23;20041;-84
2023/07/17 01:53:49;;;;;;;14.80;5.68;;;;;;;21.58;59.11;100095.44;6090480;23;20026;-84
2023/07/17 01:56:16;;;;;;;12.20;5.68;;;;;;;21.54;59.10;100095.00;6068092;23;20014;-84
2023/07/17 01:58:44;;;;;;;16.48;5.70;;;;;;;21.56;59.05;100101.03;6067523;23;20124;-84
2023/07/17 02:01:11;;;;;;;14.63;6.22;;;;;;;21.58;59.49;100109.78;6043490;23;20077;-85
2023/07/17 02:03:37;;;;;;;12.30;5.57;;;;;;;21.56;59.43;100111.84;6019851;23;20022;-84
2023/07/17 02:06:06;;;;;;;11.15;6.03;;;;;;;21.54;59.44;100111.19;6044111;23;20045;-84
2023/07/17 02:08:33;;;;;;;12.60;5.72;;;;;;;21.50;59.45;100101.84;6067282;23;20018;-84
2023/07/17 02:11:00;;;;;;;14.52;6.35;;;;;;;21.45;59.42;100107.00;6042891;23;20505;-85
2023/07/17 02:13:27;;;;;;;10.77;6.03;;;;;;;21.46;59.49;100114.06;6043988;23;20014;-84
2023/07/17 02:15:54;;;;;;;16.05;6.05;;;;;;;21.44;59.43;100108.03;6066548;23;20073;-83
2023/07/17 02:18:21;;;;;;;11.73;5.63;;;;;;;21.39;59.54;100095.13;6043283;23;20036;-86
2023/07/17 02:20:50;;;;;;;10.65;5.53;;;;;;;21.41;59.40;100101.16;6044559;23;20355;-84
2023/07/17 02:23:17;;;;;;;10.10;5.88;;;;;;;21.36;59.57;100092.78;6067182;23;20029;-84
2023/07/17 02:25:44;;;;;;;12.60;6.03;;;;;;;21.34;59.28;100097.56;6067641;23;20026;-85
2023/07/17 02:28:11;;;;;;;9.82;5.38;;;;;;;21.32;59.49;100102.34;6044516;23;20039;-83
2023/07/17 02:30:38;;;;;;;11.32;6.32;;;;;;;21.29;59.57;100105.41;6067522;23;20394;-83
2023/07/17 02:33:05;;;;;;;9.93;6.10;;;;;;;21.23;59.71;100109.75;6067117;23;20029;-84
2023/07/17 02:35:32;;;;;;;9.10;5.78;;;;;;;21.23;59.80;100112.47;6068286;23;20106;-83
2023/07/17 02:37:58;;;;;;;15.02;5.60;;;;;;;21.25;59.73;100110.41;6043779;23;20026;-84
2023/07/17 02:40:25;;;;;;;10.23;5.68;;;;;;;21.24;59.73;100118.69;6068799;23;20104;-83
2023/07/17 02:42:52;;;;;;;14.65;5.80;;;;;;;21.23;59.69;100107.06;6069407;23;20021;-84
2023/07/17 02:45:19;;;;;;;11.43;5.65;;;;;;;21.20;59.84;100117.44;6045388;23;20017;-84
2023/07/17 02:47:46;;;;;;;15.57;5.30;;;;;;;21.19;59.67;100118.44;6093457;23;20028;-83
2023/07/17 02:50:14;;;;;;;10.65;5.72;;;;;;;21.16;59.86;100127.78;6093111;23;20022;-84
2023/07/17 02:52:41;;;;;;;15.05;6.30;;;;;;;21.09;60.23;100126.94;6067872;23;20022;-84
2023/07/17 02:55:08;;;;;;;14.00;5.65;;;;;;;21.09;60.13;100136.88;6045046;23;20085;-84
2023/07/17 02:57:35;;;;;;;11.20;6.70;;;;;;;21.10;60.21;100146.66;6068720;23;20042;-84
2023/07/17 03:00:14;;;;;;;11.07;5.70;;;;;;;21.07;60.15;100138.94;6044890;23;20026;-84
2023/07/17 03:02:43;;;;;;;13.80;6.10;;;;;;;21.01;60.08;100146.81;6095263;23;20320;-84
2023/07/17 03:05:11;;;;;;;13.30;6.03;;;;;;;20.97;60.53;100140.13;6045683;23;20105;-86
2023/07/17 03:07:43;;;;;;;13.80;6.10;;;;;;;20.98;60.35;100144.47;6093863;23;20022;-84
2023/07/17 03:10:10;;;;;;;10.37;5.73;;;;;;;20.96;60.47;100148.41;6093517;23;20081;-84
2023/07/17 03:12:37;;;;;;;15.73;6.00;;;;;;;20.95;60.61;100146.75;6044436;23;20097;-83
2023/07/17 03:15:05;;;;;;;14.80;5.60;;;;;;;20.91;60.80;100153.56;6044029;23;20022;-84
2023/07/17 03:17:33;;;;;;;13.15;5.90;;;;;;;20.88;60.96;100156.66;6044527;23;20339;-84
2023/07/17 03:20:05;;;;;;;12.93;5.93;;;;;;;20.87;60.88;100157.69;6046439;23;20049;-85
2023/07/17 03:22:32;;;;;;;12.07;6.28;;;;;;;20.88;61.07;100154.78;6070154;23;20026;-84
2023/07/17 03:24:59;;;;;;;14.15;6.07;;;;;;;20.87;60.77;100149.59;6092225;23;20334;-84
2023/07/17 03:27:25;;;;;;;15.57;5.78;;;;;;;20.86;60.52;100148.72;6043004;23;20104;-79
2023/07/17 03:29:53;;;;;;;13.27;6.00;;;;;;;20.85;61.11;100155.19;6064020;23;20081;-79
2023/07/17 03:32:19;;;;;;;11.35;5.88;;;;;;;20.86;61.09;100156.84;6064037;23;20106;-79
2023/07/17 03:34:47;;;;;;;15.68;5.63;;;;;;;20.87;61.14;100163.91;6063305;23;20462;-80
2023/07/17 03:37:14;;;;;;;12.75;5.32;;;;;;;20.87;61.09;100160.41;6088042;23;20392;-79
2023/07/17 03:39:41;;;;;;;12.85;5.57;;;;;;;20.85;61.14;100160.56;6088286;23;20032;-79
2023/07/17 03:42:10;;;;;;;11.00;5.43;;;;;;;20.82;61.14;100158.28;6058269;23;20053;-82
2023/07/17 03:44:38;;;;;;;11.77;5.78;;;;;;;20.79;61.23;100153.28;6087146;23;20124;-79
2023/07/17 03:47:05;;;;;;;14.65;5.82;;;;;;;20.79;61.31;100161.38;6040764;23;20052;-79
2023/07/17 03:49:35;;;;;;;11.82;5.25;;;;;;;20.78;61.34;100162.38;6063918;23;20084;-79
2023/07/17 03:52:02;;;;;;;12.27;5.93;;;;;;;20.79;61.55;100174.84;6064288;23;20717;-80
2023/07/17 03:54:30;;;;;;;13.80;6.32;;;;;;;20.76;61.56;100165.28;6063939;23;20056;-80
2023/07/17 03:56:58;;;;;;;13.98;6.13;;;;;;;20.78;61.54;100173.16;6064775;23;20736;-79
2023/07/17 03:59:25;;;;;;;13.82;5.90;;;;;;;20.80;61.58;100157.63;6063076;23;20090;-79
2023/07/17 04:01:53;;;;;;;17.30;5.60;;;;;;;20.83;61.79;100167.19;6088168;23;20521;-80
2023/07/17 04:04:20;;;;;;;12.95;5.55;;;;;;;21.00;62.11;100158.63;6063043;23;20026;-79
2023/07/17 04:06:47;;;;;;;16.17;6.22;;;;;;;21.46;61.94;100166.25;6064783;23;20093;-79
2023/07/17 04:09:15;;;;;;;18.52;5.88;;;;;;;21.95;60.69;100161.69;6015365;23;20456;-80
2023/07/17 04:11:45;;;;;;;12.38;6.47;;;;;;;22.29;59.32;100155.41;6039720;23;20014;-80
2023/07/17 04:14:17;;;;;;;13.23;6.40;;;;;;;22.21;58.12;100157.44;6064318;23;20021;-79
2023/07/17 04:16:44;;;;;;;15.98;5.97;;;;;;;21.93;58.13;100162.94;6087196;23;20038;-80
2023/07/17 04:19:11;;;;;;;14.93;6.40;;;;;;;21.65;58.50;100166.53;6064487;23;20034;-79
2023/07/17 04:21:38;;;;;;;16.17;6.45;;;;;;;21.46;59.22;100168.09;6038633;23;20347;-79
2023/07/17 04:24:05;;;;;;;11.02;5.78;;;;;;;21.29;59.25;100166.72;6112335;23;20018;-79
2023/07/17 04:26:41;;;;;;;13.07;5.97;;;;;;;21.18;59.03;100174.34;6064815;23;20132;-79
2023/07/17 04:29:10;;;;;;;14.30;6.25;;;;;;;21.08;59.36;100179.25;6038779;23;20117;-79
2023/07/17 04:31:38;;;;;;;15.13;6.03;;;;;;;21.02;59.81;100186.25;6040760;23;20021;-88
2023/07/17 04:34:05;;;;;;;14.85;6.03;;;;;;;20.96;60.15;100192.47;6091716;23;20030;-87
2023/07/17 04:36:32;;;;;;;14.73;5.75;;;;;;;20.97;60.22;100188.72;6066417;23;20026;-91
2023/07/17 04:38:59;;;;;;;12.45;6.40;;;;;;;20.95;60.40;100189.94;6090349;23;20123;-89
2023/07/17 04:41:28;;;;;;;11.60;5.65;;;;;;;20.92;60.46;100195.72;6069197;23;22226;-91
2023/07/17 04:43:54;;;;;;;13.65;6.05;;;;;;;20.92;60.03;100193.88;6020093;23;20026;-89
2023/07/17 04:46:22;;;;;;;14.60;6.05;;;;;;;20.86;60.60;100197.31;6043917;23;20022;-91
2023/07/17 04:48:49;;;;;;;14.27;6.75;;;;;;;20.88;60.62;100197.97;6066773;23;20014;-87
2023/07/17 04:51:21;;;;;;;13.67;6.37;;;;;;;20.88;60.70;100199.84;6042846;23;20022;-87
2023/07/17 04:53:48;;;;;;;14.52;6.30;;;;;;;20.95;60.79;100193.47;6041992;23;20025;-87
2023/07/17 04:56:15;;;;;;;16.52;6.60;;;;;;;21.07;60.31;100201.06;6066062;23;20021;-87
2023/07/17 04:58:42;;;;;;;12.43;6.60;;;;;;;21.11;59.75;100192.34;6043327;23;20029;-86
2023/07/17 05:01:09;;;;;;;13.25;6.68;;;;;;;21.15;59.63;100195.50;6067852;23;20354;-87
2023/07/17 05:03:37;;;;;;;15.65;6.97;;;;;;;21.16;59.53;100197.16;6043829;23;20022;-87
2023/07/17 05:06:05;;;;;;;16.08;6.70;;;;;;;21.17;59.37;100196.97;6065405;23;20108;-87
2023/07/17 05:08:32;;;;;;;16.08;7.05;;;;;;;21.16;59.27;100203.41;6067458;23;20040;-86
2023/07/17 05:11:00;;;;;;;14.70;6.75;;;;;;;21.17;59.38;100207.78;6067036;23;20025;-87
2023/07/17 05:13:33;;;;;;;16.58;6.07;;;;;;;21.13;59.22;100206.50;6067507;23;20018;-87
2023/07/17 05:16:00;;;;;;;17.40;6.60;;;;;;;21.16;59.50;100207.97;6066941;23;20026;-87
2023/07/17 05:18:29;;;;;;;20.15;7.65;;;;;;;21.16;59.36;100203.41;6066116;23;20073;-87
2023/07/17 05:20:56;;;;;;;15.73;6.93;;;;;;;21.18;59.44;100216.72;6067105;23;20026;-87
2023/07/17 05:23:24;;;;;;;17.83;7.75;;;;;;;21.21;59.12;100216.31;6091474;23;20017;-87
2023/07/17 05:25:56;;;;;;;17.75;7.25;;;;;;;21.27;59.44;100226.34;6042076;23;20386;-87
2023/07/17 05:28:25;;;;;;;19.05;7.90;;;;;;;21.31;59.28;100215.97;6067528;23;20028;-88
2023/07/17 05:30:53;;;;;;;13.82;7.05;;;;;;;21.35;59.73;100219.97;6043071;23;20489;-87
2023/07/17 05:33:21;;;;;;;12.18;6.80;;;;;;;21.33;59.50;100225.56;6042994;23;20018;-87
2023/07/17 05:35:49;;;;;;;12.73;6.63;;;;;;;21.32;59.30;100215.78;6043650;23;20100;-87
2023/07/17 05:38:18;;;;;;;14.15;7.13;;;;;;;21.31;59.11;100207.88;6068103;23;20455;-86
2023/07/17 05:40:46;;;;;;;17.75;7.50;;;;;;;21.32;59.40;100210.41;6066317;23;20024;-87
2023/07/17 05:43:13;;;;;;;15.50;7.82;;;;;;;21.27;59.63;100209.28;6066565;23;20025;-87
2023/07/17 05:45:51;;;;;;;17.35;7.85;;;;;;;21.29;59.70;100215.34;6047026;23;20037;-87
2023/07/17 05:48:18;;;;;;;16.63;7.45;;;;;;;21.24;59.92;100224.88;6043535;23;20025;-87
2023/07/17 05:50:45;;;;;;;13.35;7.85;;;;;;;21.25;59.88;100223.00;6043213;23;20021;-87
2023/07/17 05:53:12;;;;;;;17.73;7.97;;;;;;;21.26;60.01;100227.38;6041440;23;20038;-87
2023/07/17 05:55:39;;;;;;;16.80;8.35;;;;;;;21.23;60.09;100225.06;6043057;23;20021;-88
2023/07/17 05:58:06;;;;;;;18.13;7.63;;;;;;;21.20;60.19;100228.16;6066002;23;20117;-87
2023/07/17 06:00:33;;;;;;;19.77;8.65;;;;;;;21.19;60.17;100235.44;6042209;23;20427;-87
2023/07/17 06:02:59;;;;;;;19.42;8.20;;;;;;;21.18;60.34;100235.63;6090999;23;20513;-87
2023/07/17 06:05:26;;;;;;;18.40;8.85;;;;;;;21.18;60.54;100239.16;6041896;23;20018;-87
2023/07/17 06:07:53;;;;;;;20.92;7.85;;;;;;;21.21;60.58;100237.91;6044358;23;20033;-87
2023/07/17 06:10:20;;;;;;;21.17;7.32;;;;;;;21.21;60.60;100240.63;6043591;23;20482;-87
2023/07/17 06:12:47;;;;;;;19.00;8.02;;;;;;;21.24;60.86;100237.53;6018474;23;20025;-87
2023/07/17 06:15:14;;;;;;;22.65;8.50;;;;;;;21.25;60.66;100236.50;6067733;23;20014;-87
2023/07/17 06:17:41;;;;;;;15.68;7.03;;;;;;;21.30;60.75;100234.06;6019458;23;20458;-87
2023/07/17 06:20:09;;;;;;;17.58;7.70;;;;;;;21.33;60.72;100239.06;6067074;23;20018;-87
2023/07/17 06:22:36;;;;;;;18.95;7.75;;;;;;;21.43;60.73;100244.16;6091341;23;20097;-86
2023/07/17 06:25:04;;;;;;;15.57;7.45;;;;;;;21.49;60.87;100239.81;6042078;23;20413;-87
2023/07/17 06:27:32;;;;;;;21.38;8.77;;;;;;;21.50;61.03;100244.19;6066052;23;20049;-87
2023/07/17 06:29:58;;;;;;;18.85;7.03;;;;;;;21.52;60.76;100245.66;6066617;23;20030;-87
2023/07/17 06:32:26;;;;;;;16.45;7.60;;;;;;;21.51;60.70;100245.88;6091263;23;20018;-87
2023/07/17 06:34:53;;;;;;;17.75;7.70;;;;;;;21.56;60.97;100244.25;6018332;23;20018;-87
2023/07/17 06:37:20;;;;;;;12.63;6.60;;;;;;;21.57;61.01;100236.97;6043254;23;20024;-87
2023/07/17 06:39:46;;;;;;;18.05;7.78;;;;;;;21.62;61.04;100239.91;6066757;23;20034;-87
2023/07/17 06:42:13;;;;;;;14.00;7.25;;;;;;;21.63;61.10;100245.13;6090566;23;20117;-87
2023/07/17 06:44:40;;;;;;;13.93;7.15;;;;;;;21.63;61.17;100234.31;6042934;23;20021;-87
2023/07/17 06:47:07;;;;;;;12.93;6.50;;;;;;;21.67;61.58;100237.44;6089859;23;20105;-87
2023/07/17 06:49:53;;;;;;;23.42;7.13;;;;;;;21.66;61.20;100238.50;6090710;23;20338;-87
2023/07/17 06:52:20;;;;;;;15.70;7.10;;;;;;;21.71;61.24;100235.19;6090788;23;20021;-87
2023/07/17 06:54:47;;;;;;;19.00;7.72;;;;;;;21.75;61.38;100236.47;6066156;23;20026;-87
2023/07/17 06:57:30;;;;;;;13.18;6.38;;;;;;;21.79;61.40;100235.03;6094078;23;20118;-87
2023/07/17 06:59:57;;;;;;;18.17;6.68;;;;;;;21.81;61.09;100233.81;6042872;23;20029;-87
2023/07/17 07:02:24;;;;;;;20.17;7.07;;;;;;;21.86;61.26;100225.94;6066348;23;20018;-87
2023/07/17 07:04:51;;;;;;;16.02;6.50;;;;;;;21.89;61.54;100232.81;6089470;23;20077;-87
2023/07/17 07:07:17;;;;;;;15.48;6.40;;;;;;;21.92;61.68;100226.16;6116078;23;20022;-87
2023/07/17 07:09:45;;;;;;;17.08;6.72;;;;;;;21.91;61.67;100230.75;6090822;23;20022;-87
2023/07/17 07:12:13;;;;;;;13.45;6.63;;;;;;;21.94;61.81;100230.34;6066423;23;20049;-87
2023/07/17 07:14:40;;;;;;;22.48;7.70;;;;;;;21.98;62.37;100231.63;6066037;23;20379;-87
2023/07/17 07:17:08;;;;;;;14.60;6.03;;;;;;;22.02;62.36;100235.56;6067136;23;20386;-87
2023/07/17 07:19:35;;;;;;;10.60;5.35;;;;;;;22.07;62.06;100227.69;6042908;23;20018;-87
2023/07/17 07:22:01;;;;;;;12.32;6.03;;;;;;;22.11;61.93;100223.56;6066822;23;20025;-87
2023/07/17 07:24:28;;;;;;;10.95;5.90;;;;;;;22.18;61.67;100231.69;6092506;23;20018;-88
2023/07/17 07:26:55;;;;;;;14.27;6.13;;;;;;;22.24;61.24;100224.69;6068531;23;20030;-87
2023/07/17 07:29:22;;;;;;;12.65;5.95;;;;;;;22.29;61.46;100225.75;6068286;23;20030;-87
2023/07/17 07:31:49;;;;;;;17.92;6.50;;;;;;;22.33;61.30;100223.44;6020552;23;20586;-86
2023/07/17 07:34:16;;;;;;;17.92;6.95;;;;;;;22.41;60.64;100222.44;6067816;23;20056;-87
2023/07/17 07:36:42;;;;;;;13.95;5.47;;;;;;;22.46;59.98;100220.78;6044139;23;20030;-87
2023/07/17 07:39:09;;;;;;;20.38;6.10;;;;;;;22.49;59.86;100219.53;6045152;23;20097;-87
2023/07/17 07:41:36;;;;;;;13.35;5.28;;;;;;;22.53;60.23;100212.69;6044681;23;20018;-87
2023/07/17 07:44:04;;;;;;;13.20;5.47;;;;;;;22.58;60.39;100218.31;6068309;23;20034;-87
2023/07/17 07:46:31;;;;;;;14.73;6.05;;;;;;;22.60;59.79;100208.13;6068316;23;20018;-87
2023/07/17 07:48:58;;;;;;;14.88;5.97;;;;;;;22.67;59.68;100222.50;6068628;23;20022;-87
2023/07/17 07:51:24;;;;;;;15.45;5.85;;;;;;;22.69;58.89;100215.00;6068963;23;20433;-87
2023/07/17 07:53:51;;;;;;;20.38;6.95;;;;;;;22.75;57.37;100222.31;6068256;23;20049;-87
2023/07/17 07:56:18;;;;;;;14.85;6.40;;;;;;;22.76;57.58;100223.13;6091679;23;20028;-86
2023/07/17 07:58:45;;;;;;;19.83;7.03;;;;;;;22.81;57.05;100222.53;6069581;23;20438;-87
2023/07/17 08:01:12;;;;;;;15.85;6.25;;;;;;;22.83;55.67;100223.97;6092393;23;20101;-87
2023/07/17 08:03:40;;;;;;;14.75;5.68;;;;;;;22.88;55.83;100226.09;6092143;23;20109;-88
2023/07/17 08:06:07;;;;;;;18.77;6.10;;;;;;;22.91;55.70;100229.19;6044676;23;20458;-86
2023/07/17 08:08:34;;;;;;;12.65;5.78;;;;;;;22.90;54.99;100213.19;6091624;23;20029;-87
2023/07/17 08:11:04;;;;;;;19.85;6.72;;;;;;;22.96;54.75;100224.00;6067566;23;20390;-86
2023/07/17 08:13:31;;;;;;;15.05;6.30;;;;;;;23.00;54.61;100224.47;6068338;23;20034;-87
2023/07/17 08:15:57;;;;;;;15.35;6.60;;;;;;;23.00;54.56;100224.47;6092771;23;20085;-87
2023/07/17 08:18:24;;;;;;;16.30;6.50;;;;;;;23.09;53.84;100233.19;6069226;23;20065;-88
2023/07/17 08:20:51;;;;;;;15.90;6.80;;;;;;;23.08;54.37;100229.66;6069150;23;20379;-88
2023/07/17 08:23:38;;;;;;;14.98;6.43;;;;;;;23.14;53.27;100231.53;6096268;23;20025;-87
2023/07/17 08:26:05;;;;;;;18.85;6.55;;;;;;;23.17;52.81;100231.09;6068622;23;20033;-87
2023/07/17 08:28:32;;;;;;;23.00;7.28;;;;;;;23.20;53.01;100232.56;6068402;23;20033;-86
2023/07/17 08:30:58;;;;;;;17.02;7.15;;;;;;;23.22;52.65;100229.66;6069407;23;20030;-86
2023/07/17 08:33:26;;;;;;;19.60;7.35;;;;;;;23.23;52.19;100243.00;6043778;23;20026;-88
2023/07/17 08:35:52;;;;;;;14.68;6.78;;;;;;;23.26;51.42;100233.63;6068646;23;20101;-87
2023/07/17 08:38:19;;;;;;;24.08;7.65;;;;;;;23.27;51.64;100236.09;6068634;23;20026;-87
2023/07/17 08:40:51;;;;;;;17.08;7.43;;;;;;;23.32;51.98;100241.72;6067809;23;20021;-88
2023/07/17 08:43:18;;;;;;;22.20;7.90;;;;;;;23.34;51.09;100231.53;6067959;23;20045;-88
2023/07/17 08:45:45;;;;;;;16.80;6.32;;;;;;;23.44;51.50;100233.00;6091996;23;20350;-88
2023/07/17 08:48:14;;;;;;;14.10;6.75;;;;;;;23.50;51.77;100238.38;6044236;23;20030;-88
2023/07/17 08:50:41;;;;;;;19.83;7.03;;;;;;;23.52;51.67;100246.31;6043263;23;20081;-88
2023/07/17 08:53:09;;;;;;;12.80;6.15;;;;;;;23.54;50.81;100241.53;6067356;23;20030;-87
2023/07/17 08:55:35;;;;;;;18.13;6.68;;;;;;;23.50;51.21;100240.28;6069012;23;20017;-87
2023/07/17 08:58:03;;;;;;;18.13;7.15;;;;;;;23.45;51.21;100246.31;6092474;23;20697;-88
2023/07/17 09:00:31;;;;;;;20.90;6.90;;;;;;;23.42;51.40;100246.75;6068625;23;20033;-89
2023/07/17 09:02:58;;;;;;;14.35;6.60;;;;;;;23.41;50.25;100234.25;6067109;23;20022;-88
2023/07/17 09:05:25;;;;;;;25.13;8.50;;;;;;;23.42;50.99;100237.78;6068697;23;20451;-89
2023/07/17 09:07:52;;;;;;;19.17;7.05;;;;;;;23.44;50.97;100241.13;6066384;23;20699;-87
2023/07/17 09:10:20;;;;;;;16.75;7.22;;;;;;;23.48;49.91;100231.50;6092672;23;20021;-88
2023/07/17 09:12:54;;;;;;;19.13;6.93;;;;;;;23.50;48.97;100232.13;6068024;23;20014;-87
2023/07/17 09:15:21;;;;;;;16.88;7.32;;;;;;;23.57;49.93;100220.25;6116803;23;20030;-89
2023/07/17 09:17:48;;;;;;;17.50;6.65;;;;;;;23.60;49.93;100229.81;6067262;23;20394;-87
2023/07/17 09:20:17;;;;;;;16.17;6.63;;;;;;;23.62;49.79;100225.03;6067147;23;20450;-88
2023/07/17 09:22:44;;;;;;;14.63;6.90;;;;;;;23.61;50.20;100226.09;6043003;23;20024;-87
2023/07/17 09:25:12;;;;;;;15.82;6.47;;;;;;;23.65;49.80;100218.34;6091674;23;20052;-88
2023/07/17 09:27:50;;;;;;;16.75;7.40;;;;;;;23.61;49.38;100224.19;6091564;23;20026;-87
2023/07/17 09:30:18;;;;;;;14.70;6.88;;;;;;;23.76;48.72;100217.72;6066856;23;20022;-86
2023/07/17 09:32:47;;;;;;;18.55;8.05;;;;;;;23.77;48.83;100228.38;6066832;23;20040;-87
2023/07/17 09:35:15;;;;;;;15.95;7.10;;;;;;;23.76;48.62;100223.13;6091666;23;20034;-88
2023/07/17 09:37:43;;;;;;;20.10;7.68;;;;;;;23.76;48.74;100223.13;6067994;23;20022;-87
2023/07/17 09:40:13;;;;;;;19.90;8.18;;;;;;;23.84;48.04;100220.22;6067405;23;20022;-89
2023/07/17 09:42:46;;;;;;;22.17;7.45;;;;;;;23.87;47.96;100225.22;6043392;23;20493;-87
2023/07/17 09:45:12;;;;;;;19.00;7.22;;;;;;;23.90;48.18;100219.34;6090136;23;20085;-87
2023/07/17 09:47:39;;;;;;;21.00;7.72;;;;;;;23.97;47.82;100230.19;6091532;23;20026;-88
2023/07/17 09:50:10;;;;;;;17.40;7.45;;;;;;;23.95;47.54;100224.16;6092109;23;20350;-87
2023/07/17 09:52:37;;;;;;;18.30;7.55;;;;;;;23.98;47.13;100227.25;6067925;23;20050;-88
2023/07/17 09:55:04;;;;;;;18.15;6.88;;;;;;;24.01;46.79;100232.25;6091159;23;20030;-88
2023/07/17 09:57:35;;;;;;;15.55;7.72;;;;;;;23.99;46.89;100226.22;6091125;23;20075;-88
2023/07/17 10:00:05;;;;;;;16.92;6.95;;;;;;;23.98;46.29;100229.97;6067241;23;20442;-88
2023/07/17 10:02:55;;;;;;;16.48;7.55;;;;;;;23.89;47.24;100230.41;6066554;23;20022;-86
2023/07/17 10:05:22;;;;;;;16.75;6.97;;;;;;;23.91;46.99;100239.16;6067152;23;20331;-88
2023/07/17 10:07:50;;;;;;;18.42;7.63;;;;;;;23.91;47.16;100229.16;6089968;23;20438;-88
2023/07/17 10:10:17;;;;;;;22.67;7.07;;;;;;;23.91;47.07;100231.03;6091121;23;20097;-87
2023/07/17 10:12:44;;;;;;;17.80;7.40;;;;;;;23.91;47.18;100222.88;6066913;23;20025;-87
2023/07/17 10:15:13;;;;;;;18.40;7.47;;;;;;;23.97;47.25;100228.31;6067639;23;20029;-87
2023/07/17 10:17:40;;;;;;;16.90;8.00;;;;;;;24.05;47.29;100221.81;6042585;23;20101;-87
2023/07/17 10:20:09;;;;;;;17.08;7.35;;;;;;;24.14;47.37;100225.09;6066887;23;20026;-88
2023/07/17 10:22:40;;;;;;;14.05;6.10;;;;;;;24.19;46.74;100226.13;6066930;23;20324;-88
2023/07/17 10:25:22;;;;;;;13.23;7.10;;;;;;;24.14;45.37;100217.78;6090218;23;20052;-87
2023/07/17 10:28:00;;;;;;;15.88;6.82;;;;;;;24.16;45.72;100228.44;6066791;23;20018;-89
2023/07/17 10:30:35;;;;;;;14.93;6.43;;;;;;;24.12;45.46;100233.47;6067553;23;20458;-87
2023/07/17 10:33:13;;;;;;;16.77;6.05;;;;;;;24.10;44.37;100222.00;6091596;23;20025;-89
2023/07/17 10:36:00;;;;;;;20.38;7.25;;;;;;;24.12;45.31;100216.34;6091493;23;20013;-88
2023/07/17 10:38:30;;;;;;;15.85;6.40;;;;;;;24.22;46.47;100222.13;6043350;23;20024;-88
2023/07/17 10:41:23;;;;;;;19.00;7.57;;;;;;;24.14;45.52;100216.97;6044942;23;20033;-89
2023/07/17 10:43:50;;;;;;;;;;;;;;;24.01;45.87;100215.97;6042714;23;20076;-88
2023/07/17 10:46:29;;;;;;;13.27;5.85;;;;;;;24.14;44.72;100225.09;6091566;23;19942;-88
2023/07/17 10:49:08;;;;;;;19.70;5.90;;;;;;;24.07;44.89;100210.72;6091656;23;20093;-88
2023/07/17 10:51:36;;;;;;;21.85;6.53;;;;;;;24.11;45.29;100220.13;6042354;23;20022;-86
2023/07/17 10:54:03;;;;;;;15.90;5.65;;;;;;;24.15;45.42;100214.03;6065383;23;20017;-87
2023/07/17 10:56:30;;;;;;;13.73;6.15;;;;;;;24.11;45.18;100209.25;6043838;23;20499;-86
2023/07/17 10:58:57;;;;;;;17.52;5.78;;;;;;;24.07;44.90;100214.28;6068330;23;20022;-86
2023/07/17 11:01:24;;;;;;;12.65;5.57;;;;;;;24.05;45.18;100210.97;6069450;23;20030;-87
2023/07/17 11:03:53;;;;;;;10.88;5.20;;;;;;;24.06;45.17;100207.19;6092892;23;20442;-88
2023/07/17 11:06:25;;;;;;;13.20;5.60;;;;;;;24.08;45.18;100204.28;6093714;23;20022;-89
2023/07/17 11:08:54;;;;;;;14.73;5.53;;;;;;;24.09;44.34;100209.47;6046180;23;20378;-92
2023/07/17 11:11:21;;;;;;;12.70;5.90;;;;;;;24.10;44.17;100213.84;6092447;23;20080;-91
2023/07/17 11:13:48;;;;;;;16.15;6.00;;;;;;;24.13;44.64;100213.41;6092639;23;20147;-89
2023/07/17 11:16:16;;;;;;;13.40;5.28;;;;;;;24.16;43.90;100210.28;6069519;23;20018;-92
2023/07/17 11:18:46;;;;;;;12.27;5.70;;;;;;;24.12;43.91;100202.78;6045623;23;20029;-90
2023/07/17 11:21:18;;;;;;;13.35;5.57;;;;;;;24.12;44.28;100205.50;6069200;23;20032;-90